sensor_id;sensor_type;location;lat;lon;timestamp;P1;durP1;ratioP1;P2;durP2;ratioP2
76021;SDS011;64718;52.124;6.226;2023-02-15T00:00:23;35.55;;;18.65;;
76021;SDS011;64718;52.124;6.226;2023-02-15T00:02:49;31.55;;;15.85;;
76021;SDS011;64718;52.124;6.226;2023-02-15T00:05:17;30.30;;;16.33;;
76021;SDS011;64718;52.124;6.226;2023-02-15T00:07:44;27.60;;;15.23;;
76021;SDS011;64718;52.124;6.226;2023-02-15T00:10:10;33.17;;;16.70;;
76021;SDS011;64718;52.124;6.226;2023-02-15T00:12:37;31.85;;;16.10;;
76021;SDS011;64718;52.124;6.226;2023-02-15T00:15:03;35.53;;;15.77;;
76021;SDS011;64718;52.124;6.226;2023-02-15T00:17:30;27.08;;;14.95;;
76021;SDS011;64718;52.124;6.226;2023-02-15T00:19:57;34.08;;;16.23;;
76021;SDS011;64718;52.124;6.226;2023-02-15T00:22:25;31.52;;;15.80;;
76021;SDS011;64718;52.124;6.226;2023-02-15T00:24:51;29.88;;;15.18;;
76021;SDS011;64718;52.124;6.226;2023-02-15T00:27:18;37.30;;;18.88;;
76021;SDS011;64718;52.124;6.226;2023-02-15T00:29:46;36.13;;;19.23;;
76021;SDS011;64718;52.124;6.226;2023-02-15T00:32:12;34.55;;;17.25;;
76021;SDS011;64718;52.124;6.226;2023-02-15T00:34:39;35.47;;;15.68;;
76021;SDS011;64718;52.124;6.226;2023-02-15T00:37:05;34.22;;;16.33;;
76021;SDS011;64718;52.124;6.226;2023-02-15T00:39:33;35.15;;;17.20;;
76021;SDS011;64718;52.124;6.226;2023-02-15T00:42:00;33.35;;;16.25;;
76021;SDS011;64718;52.124;6.226;2023-02-15T00:44:26;28.98;;;17.25;;
76021;SDS011;64718;52.124;6.226;2023-02-15T00:46:53;33.97;;;15.63;;
76021;SDS011;64718;52.124;6.226;2023-02-15T00:49:19;30.15;;;14.50;;
76021;SDS011;64718;52.124;6.226;2023-02-15T00:51:46;35.03;;;16.88;;
76021;SDS011;64718;52.124;6.226;2023-02-15T00:54:12;29.80;;;15.32;;
76021;SDS011;64718;52.124;6.226;2023-02-15T00:56:40;33.40;;;16.40;;
76021;SDS011;64718;52.124;6.226;2023-02-15T00:59:07;31.83;;;15.63;;
76021;SDS011;64718;52.124;6.226;2023-02-15T01:01:34;34.90;;;16.58;;
76021;SDS011;64718;52.124;6.226;2023-02-15T01:04:01;32.08;;;15.68;;
76021;SDS011;64718;52.124;6.226;2023-02-15T01:06:27;30.73;;;15.02;;
76021;SDS011;64718;52.124;6.226;2023-02-15T01:08:54;36.20;;;17.52;;
76021;SDS011;64718;52.124;6.226;2023-02-15T01:11:21;36.30;;;16.30;;
76021;SDS011;64718;52.124;6.226;2023-02-15T01:13:50;31.65;;;15.75;;
76021;SDS011;64718;52.124;6.226;2023-02-15T01:16:17;33.00;;;15.07;;
76021;SDS011;64718;52.124;6.226;2023-02-15T01:18:44;34.90;;;16.23;;
76021;SDS011;64718;52.124;6.226;2023-02-15T01:21:12;34.05;;;15.77;;
76021;SDS011;64718;52.124;6.226;2023-02-15T01:23:39;32.15;;;15.25;;
76021;SDS011;64718;52.124;6.226;2023-02-15T01:26:06;29.13;;;15.95;;
76021;SDS011;64718;52.124;6.226;2023-02-15T01:28:33;32.10;;;15.50;;
76021;SDS011;64718;52.124;6.226;2023-02-15T01:31:05;32.88;;;15.65;;
76021;SDS011;64718;52.124;6.226;2023-02-15T01:33:32;33.53;;;15.60;;
76021;SDS011;64718;52.124;6.226;2023-02-15T01:35:59;33.78;;;16.20;;
76021;SDS011;64718;52.124;6.226;2023-02-15T01:38:26;36.53;;;16.88;;
76021;SDS011;64718;52.124;6.226;2023-02-15T01:40:53;35.00;;;17.75;;
76021;SDS011;64718;52.124;6.226;2023-02-15T01:43:40;38.60;;;19.00;;
76021;SDS011;64718;52.124;6.226;2023-02-15T01:46:09;44.30;;;18.48;;
76021;SDS011;64718;52.124;6.226;2023-02-15T01:48:43;36.42;;;17.27;;
76021;SDS011;64718;52.124;6.226;2023-02-15T01:51:12;37.28;;;18.25;;
76021;SDS011;64718;52.124;6.226;2023-02-15T01:53:43;37.08;;;18.35;;
76021;SDS011;64718;52.124;6.226;2023-02-15T01:56:15;34.50;;;16.23;;
76021;SDS011;64718;52.124;6.226;2023-02-15T01:58:46;33.75;;;17.30;;
76021;SDS011;64718;52.124;6.226;2023-02-15T02:01:15;34.85;;;16.42;;
76021;SDS011;64718;52.124;6.226;2023-02-15T02:03:43;36.08;;;16.10;;
76021;SDS011;64718;52.124;6.226;2023-02-15T02:06:20;30.88;;;15.98;;
76021;SDS011;64718;52.124;6.226;2023-02-15T02:08:47;36.85;;;19.38;;
76021;SDS011;64718;52.124;6.226;2023-02-15T02:11:14;37.28;;;17.23;;
76021;SDS011;64718;52.124;6.226;2023-02-15T02:13:42;34.35;;;16.25;;
76021;SDS011;64718;52.124;6.226;2023-02-15T02:16:11;33.85;;;16.35;;
76021;SDS011;64718;52.124;6.226;2023-02-15T02:18:48;37.40;;;15.40;;
76021;SDS011;64718;52.124;6.226;2023-02-15T02:21:38;31.90;;;14.88;;
76021;SDS011;64718;52.124;6.226;2023-02-15T02:27:29;32.35;;;15.63;;
76021;SDS011;64718;52.124;6.226;2023-02-15T02:36:15;33.22;;;15.77;;
76021;SDS011;64718;52.124;6.226;2023-02-15T02:38:52;29.38;;;15.02;;
76021;SDS011;64718;52.124;6.226;2023-02-15T02:41:36;39.83;;;16.17;;
76021;SDS011;64718;52.124;6.226;2023-02-15T02:44:10;29.52;;;14.68;;
76021;SDS011;64718;52.124;6.226;2023-02-15T02:46:48;34.80;;;14.68;;
76021;SDS011;64718;52.124;6.226;2023-02-15T02:49:28;36.67;;;16.73;;
76021;SDS011;64718;52.124;6.226;2023-02-15T02:51:57;40.65;;;18.48;;
76021;SDS011;64718;52.124;6.226;2023-02-15T02:54:25;36.80;;;16.75;;
76021;SDS011;64718;52.124;6.226;2023-02-15T02:56:51;43.70;;;18.80;;
76021;SDS011;64718;52.124;6.226;2023-02-15T02:59:21;33.88;;;16.90;;
76021;SDS011;64718;52.124;6.226;2023-02-15T03:01:52;39.53;;;17.13;;
76021;SDS011;64718;52.124;6.226;2023-02-15T03:04:24;37.05;;;17.98;;
76021;SDS011;64718;52.124;6.226;2023-02-15T03:06:57;35.55;;;17.08;;
76021;SDS011;64718;52.124;6.226;2023-02-15T03:09:26;40.63;;;17.40;;
76021;SDS011;64718;52.124;6.226;2023-02-15T03:11:59;39.22;;;17.85;;
76021;SDS011;64718;52.124;6.226;2023-02-15T03:14:27;42.53;;;18.00;;
76021;SDS011;64718;52.124;6.226;2023-02-15T03:16:54;35.47;;;16.13;;
76021;SDS011;64718;52.124;6.226;2023-02-15T03:19:22;41.10;;;17.15;;
76021;SDS011;64718;52.124;6.226;2023-02-15T03:21:54;32.35;;;15.90;;
76021;SDS011;64718;52.124;6.226;2023-02-15T03:24:34;34.20;;;15.38;;
76021;SDS011;64718;52.124;6.226;2023-02-15T03:27:04;39.72;;;16.58;;
76021;SDS011;64718;52.124;6.226;2023-02-15T03:29:36;38.53;;;17.20;;
76021;SDS011;64718;52.124;6.226;2023-02-15T03:32:04;37.70;;;16.13;;
76021;SDS011;64718;52.124;6.226;2023-02-15T03:34:36;32.58;;;14.68;;
76021;SDS011;64718;52.124;6.226;2023-02-15T03:37:05;32.20;;;15.93;;
76021;SDS011;64718;52.124;6.226;2023-02-15T03:39:39;38.25;;;16.17;;
76021;SDS011;64718;52.124;6.226;2023-02-15T03:42:12;35.45;;;15.27;;
76021;SDS011;64718;52.124;6.226;2023-02-15T03:44:46;38.88;;;16.27;;
76021;SDS011;64718;52.124;6.226;2023-02-15T03:47:20;36.72;;;17.85;;
76021;SDS011;64718;52.124;6.226;2023-02-15T03:49:52;30.05;;;14.30;;
76021;SDS011;64718;52.124;6.226;2023-02-15T03:52:23;33.97;;;16.75;;
76021;SDS011;64718;52.124;6.226;2023-02-15T03:54:52;34.33;;;15.43;;
76021;SDS011;64718;52.124;6.226;2023-02-15T03:57:20;31.25;;;15.50;;
76021;SDS011;64718;52.124;6.226;2023-02-15T04:00:08;32.28;;;15.93;;
76021;SDS011;64718;52.124;6.226;2023-02-15T04:05:48;37.30;;;15.25;;
76021;SDS011;64718;52.124;6.226;2023-02-15T04:08:17;31.73;;;15.57;;
76021;SDS011;64718;52.124;6.226;2023-02-15T04:10:43;36.47;;;15.25;;
76021;SDS011;64718;52.124;6.226;2023-02-15T04:13:17;34.85;;;16.33;;
76021;SDS011;64718;52.124;6.226;2023-02-15T04:15:44;32.63;;;15.07;;
76021;SDS011;64718;52.124;6.226;2023-02-15T04:18:28;33.85;;;16.23;;
76021;SDS011;64718;52.124;6.226;2023-02-15T04:21:13;34.38;;;14.65;;
76021;SDS011;64718;52.124;6.226;2023-02-15T04:23:58;37.50;;;17.27;;
76021;SDS011;64718;52.124;6.226;2023-02-15T04:26:42;28.58;;;14.18;;
76021;SDS011;64718;52.124;6.226;2023-02-15T04:29:08;36.35;;;15.95;;
76021;SDS011;64718;52.124;6.226;2023-02-15T04:31:35;35.35;;;15.85;;
76021;SDS011;64718;52.124;6.226;2023-02-15T04:34:01;35.78;;;16.08;;
76021;SDS011;64718;52.124;6.226;2023-02-15T04:36:28;35.17;;;15.38;;
76021;SDS011;64718;52.124;6.226;2023-02-15T04:38:54;33.92;;;14.40;;
76021;SDS011;64718;52.124;6.226;2023-02-15T04:41:22;38.22;;;16.45;;
76021;SDS011;64718;52.124;6.226;2023-02-15T04:43:49;37.20;;;15.85;;
76021;SDS011;64718;52.124;6.226;2023-02-15T04:46:15;35.67;;;15.65;;
76021;SDS011;64718;52.124;6.226;2023-02-15T04:48:42;36.97;;;17.27;;
76021;SDS011;64718;52.124;6.226;2023-02-15T04:51:09;38.75;;;16.45;;
76021;SDS011;64718;52.124;6.226;2023-02-15T04:53:36;38.83;;;15.95;;
76021;SDS011;64718;52.124;6.226;2023-02-15T04:56:02;29.10;;;15.07;;
76021;SDS011;64718;52.124;6.226;2023-02-15T04:58:30;37.33;;;15.88;;
76021;SDS011;64718;52.124;6.226;2023-02-15T05:00:57;38.63;;;15.80;;
76021;SDS011;64718;52.124;6.226;2023-02-15T05:03:24;30.58;;;13.77;;
76021;SDS011;64718;52.124;6.226;2023-02-15T05:05:51;36.10;;;15.48;;
76021;SDS011;64718;52.124;6.226;2023-02-15T05:08:17;39.83;;;16.63;;
76021;SDS011;64718;52.124;6.226;2023-02-15T05:10:44;34.17;;;15.80;;
76021;SDS011;64718;52.124;6.226;2023-02-15T05:13:10;40.80;;;17.65;;
76021;SDS011;64718;52.124;6.226;2023-02-15T05:15:38;36.95;;;14.77;;
76021;SDS011;64718;52.124;6.226;2023-02-15T05:18:05;37.80;;;15.20;;
76021;SDS011;64718;52.124;6.226;2023-02-15T05:20:32;36.60;;;15.32;;
76021;SDS011;64718;52.124;6.226;2023-02-15T05:22:58;27.77;;;13.48;;
76021;SDS011;64718;52.124;6.226;2023-02-15T05:25:25;36.72;;;15.73;;
76021;SDS011;64718;52.124;6.226;2023-02-15T05:28:09;34.42;;;16.98;;
76021;SDS011;64718;52.124;6.226;2023-02-15T05:30:47;31.63;;;14.15;;
76021;SDS011;64718;52.124;6.226;2023-02-15T05:33:13;32.40;;;13.95;;
76021;SDS011;64718;52.124;6.226;2023-02-15T05:35:40;35.78;;;14.90;;
76021;SDS011;64718;52.124;6.226;2023-02-15T05:38:06;29.08;;;13.25;;
76021;SDS011;64718;52.124;6.226;2023-02-15T05:40:33;36.63;;;16.52;;
76021;SDS011;64718;52.124;6.226;2023-02-15T05:43:00;35.63;;;15.05;;
76021;SDS011;64718;52.124;6.226;2023-02-15T05:45:26;36.88;;;15.70;;
76021;SDS011;64718;52.124;6.226;2023-02-15T05:47:54;36.25;;;16.17;;
76021;SDS011;64718;52.124;6.226;2023-02-15T05:50:23;35.10;;;17.00;;
76021;SDS011;64718;52.124;6.226;2023-02-15T05:52:49;36.13;;;15.88;;
76021;SDS011;64718;52.124;6.226;2023-02-15T05:55:16;40.60;;;16.88;;
76021;SDS011;64718;52.124;6.226;2023-02-15T05:57:43;38.65;;;17.02;;
76021;SDS011;64718;52.124;6.226;2023-02-15T06:00:10;39.60;;;17.15;;
76021;SDS011;64718;52.124;6.226;2023-02-15T06:02:38;35.75;;;15.68;;
76021;SDS011;64718;52.124;6.226;2023-02-15T06:05:07;39.58;;;15.65;;
76021;SDS011;64718;52.124;6.226;2023-02-15T06:07:34;38.40;;;16.25;;
76021;SDS011;64718;52.124;6.226;2023-02-15T06:10:01;35.38;;;16.65;;
76021;SDS011;64718;52.124;6.226;2023-02-15T06:12:27;43.70;;;17.67;;
76021;SDS011;64718;52.124;6.226;2023-02-15T06:14:54;40.75;;;17.17;;
76021;SDS011;64718;52.124;6.226;2023-02-15T06:17:20;39.42;;;15.43;;
76021;SDS011;64718;52.124;6.226;2023-02-15T06:19:47;41.72;;;16.20;;
76021;SDS011;64718;52.124;6.226;2023-02-15T06:22:15;34.38;;;14.73;;
76021;SDS011;64718;52.124;6.226;2023-02-15T06:24:41;40.90;;;16.90;;
76021;SDS011;64718;52.124;6.226;2023-02-15T06:27:08;46.80;;;18.08;;
76021;SDS011;64718;52.124;6.226;2023-02-15T06:29:35;38.75;;;17.23;;
76021;SDS011;64718;52.124;6.226;2023-02-15T06:32:02;40.92;;;18.38;;
76021;SDS011;64718;52.124;6.226;2023-02-15T06:34:29;39.47;;;15.40;;
76021;SDS011;64718;52.124;6.226;2023-02-15T06:36:55;40.60;;;17.58;;
76021;SDS011;64718;52.124;6.226;2023-02-15T06:39:23;44.10;;;16.95;;
76021;SDS011;64718;52.124;6.226;2023-02-15T06:41:50;45.15;;;19.35;;
76021;SDS011;64718;52.124;6.226;2023-02-15T06:44:16;39.65;;;17.55;;
76021;SDS011;64718;52.124;6.226;2023-02-15T06:46:43;43.00;;;16.88;;
76021;SDS011;64718;52.124;6.226;2023-02-15T06:49:09;41.83;;;16.52;;
76021;SDS011;64718;52.124;6.226;2023-02-15T06:51:36;37.70;;;16.02;;
76021;SDS011;64718;52.124;6.226;2023-02-15T06:54:03;43.08;;;16.15;;
76021;SDS011;64718;52.124;6.226;2023-02-15T06:56:30;48.80;;;18.05;;
76021;SDS011;64718;52.124;6.226;2023-02-15T06:58:57;42.42;;;16.92;;
76021;SDS011;64718;52.124;6.226;2023-02-15T07:01:24;42.10;;;17.27;;
76021;SDS011;64718;52.124;6.226;2023-02-15T07:03:50;42.55;;;17.00;;
76021;SDS011;64718;52.124;6.226;2023-02-15T07:06:17;44.13;;;15.93;;
76021;SDS011;64718;52.124;6.226;2023-02-15T07:08:43;44.78;;;17.38;;
76021;SDS011;64718;52.124;6.226;2023-02-15T07:11:10;40.03;;;14.65;;
76021;SDS011;64718;52.124;6.226;2023-02-15T07:13:55;40.35;;;16.02;;
76021;SDS011;64718;52.124;6.226;2023-02-15T07:16:22;37.65;;;14.60;;
76021;SDS011;64718;52.124;6.226;2023-02-15T07:18:49;38.72;;;15.75;;
76021;SDS011;64718;52.124;6.226;2023-02-15T07:21:15;38.65;;;16.63;;
76021;SDS011;64718;52.124;6.226;2023-02-15T07:23:42;43.20;;;18.60;;
76021;SDS011;64718;52.124;6.226;2023-02-15T07:26:08;38.42;;;16.60;;
76021;SDS011;64718;52.124;6.226;2023-02-15T07:28:35;47.20;;;18.42;;
76021;SDS011;64718;52.124;6.226;2023-02-15T07:31:03;39.28;;;17.05;;
76021;SDS011;64718;52.124;6.226;2023-02-15T07:33:30;43.63;;;17.38;;
76021;SDS011;64718;52.124;6.226;2023-02-15T07:35:57;45.55;;;17.25;;
76021;SDS011;64718;52.124;6.226;2023-02-15T07:38:26;44.78;;;17.90;;
76021;SDS011;64718;52.124;6.226;2023-02-15T07:40:57;42.42;;;17.08;;
76021;SDS011;64718;52.124;6.226;2023-02-15T07:43:24;40.08;;;19.15;;
76021;SDS011;64718;52.124;6.226;2023-02-15T07:45:50;38.60;;;16.63;;
76021;SDS011;64718;52.124;6.226;2023-02-15T07:48:18;45.88;;;19.63;;
76021;SDS011;64718;52.124;6.226;2023-02-15T07:50:45;44.50;;;18.67;;
76021;SDS011;64718;52.124;6.226;2023-02-15T07:53:11;48.80;;;18.60;;
76021;SDS011;64718;52.124;6.226;2023-02-15T07:55:38;38.60;;;16.27;;
76021;SDS011;64718;52.124;6.226;2023-02-15T07:58:04;37.60;;;18.20;;
76021;SDS011;64718;52.124;6.226;2023-02-15T08:00:31;38.72;;;16.45;;
76021;SDS011;64718;52.124;6.226;2023-02-15T08:03:19;35.50;;;16.35;;
76021;SDS011;64718;52.124;6.226;2023-02-15T08:05:49;32.40;;;15.40;;
76021;SDS011;64718;52.124;6.226;2023-02-15T08:08:15;36.28;;;15.10;;
76021;SDS011;64718;52.124;6.226;2023-02-15T08:10:57;37.78;;;17.48;;
76021;SDS011;64718;52.124;6.226;2023-02-15T08:13:48;33.72;;;16.23;;
76021;SDS011;64718;52.124;6.226;2023-02-15T08:16:24;34.42;;;15.57;;
76021;SDS011;64718;52.124;6.226;2023-02-15T08:18:53;35.20;;;16.75;;
76021;SDS011;64718;52.124;6.226;2023-02-15T08:21:21;32.88;;;16.35;;
76021;SDS011;64718;52.124;6.226;2023-02-15T08:23:48;33.65;;;15.85;;
76021;SDS011;64718;52.124;6.226;2023-02-15T08:26:14;31.63;;;15.50;;
76021;SDS011;64718;52.124;6.226;2023-02-15T08:28:41;28.77;;;14.57;;
76021;SDS011;64718;52.124;6.226;2023-02-15T08:31:09;30.23;;;16.02;;
76021;SDS011;64718;52.124;6.226;2023-02-15T08:33:37;30.63;;;14.88;;
76021;SDS011;64718;52.124;6.226;2023-02-15T08:36:07;35.67;;;16.75;;
76021;SDS011;64718;52.124;6.226;2023-02-15T08:38:35;27.98;;;14.02;;
76021;SDS011;64718;52.124;6.226;2023-02-15T08:41:09;27.85;;;13.68;;
76021;SDS011;64718;52.124;6.226;2023-02-15T08:43:37;32.15;;;15.27;;
76021;SDS011;64718;52.124;6.226;2023-02-15T08:46:04;31.90;;;15.90;;
76021;SDS011;64718;52.124;6.226;2023-02-15T08:48:31;29.05;;;15.13;;
76021;SDS011;64718;52.124;6.226;2023-02-15T08:50:58;28.58;;;15.05;;
76021;SDS011;64718;52.124;6.226;2023-02-15T08:53:26;24.33;;;13.82;;
76021;SDS011;64718;52.124;6.226;2023-02-15T08:55:55;29.85;;;15.25;;
76021;SDS011;64718;52.124;6.226;2023-02-15T08:58:22;32.85;;;15.88;;
76021;SDS011;64718;52.124;6.226;2023-02-15T09:00:49;33.03;;;16.45;;
76021;SDS011;64718;52.124;6.226;2023-02-15T09:03:15;32.80;;;17.55;;
76021;SDS011;64718;52.124;6.226;2023-02-15T09:05:42;32.95;;;17.65;;
76021;SDS011;64718;52.124;6.226;2023-02-15T09:08:09;30.00;;;16.58;;
76021;SDS011;64718;52.124;6.226;2023-02-15T09:10:37;33.88;;;15.95;;
76021;SDS011;64718;52.124;6.226;2023-02-15T09:13:03;31.80;;;16.10;;
76021;SDS011;64718;52.124;6.226;2023-02-15T09:15:30;34.53;;;17.23;;
76021;SDS011;64718;52.124;6.226;2023-02-15T09:17:56;36.17;;;20.35;;
76021;SDS011;64718;52.124;6.226;2023-02-15T09:20:24;35.05;;;17.23;;
76021;SDS011;64718;52.124;6.226;2023-02-15T09:22:51;31.77;;;15.77;;
76021;SDS011;64718;52.124;6.226;2023-02-15T09:25:19;35.58;;;16.75;;
76021;SDS011;64718;52.124;6.226;2023-02-15T09:27:47;31.85;;;16.90;;
76021;SDS011;64718;52.124;6.226;2023-02-15T09:30:14;34.55;;;16.73;;
76021;SDS011;64718;52.124;6.226;2023-02-15T09:32:40;33.55;;;16.58;;
76021;SDS011;64718;52.124;6.226;2023-02-15T09:35:07;30.55;;;16.63;;
76021;SDS011;64718;52.124;6.226;2023-02-15T09:37:33;32.42;;;16.27;;
76021;SDS011;64718;52.124;6.226;2023-02-15T09:40:00;34.63;;;19.13;;
76021;SDS011;64718;52.124;6.226;2023-02-15T09:42:31;35.00;;;18.90;;
76021;SDS011;64718;52.124;6.226;2023-02-15T09:45:24;34.30;;;16.40;;
76021;SDS011;64718;52.124;6.226;2023-02-15T09:48:07;33.97;;;16.27;;
76021;SDS011;64718;52.124;6.226;2023-02-15T09:50:50;37.67;;;17.55;;
76021;SDS011;64718;52.124;6.226;2023-02-15T09:55:56;29.70;;;15.80;;
76021;SDS011;64718;52.124;6.226;2023-02-15T09:58:31;34.95;;;16.88;;
76021;SDS011;64718;52.124;6.226;2023-02-15T10:01:09;33.63;;;17.75;;
76021;SDS011;64718;52.124;6.226;2023-02-15T10:03:47;34.20;;;16.83;;
76021;SDS011;64718;52.124;6.226;2023-02-15T10:06:28;32.63;;;16.10;;
76021;SDS011;64718;52.124;6.226;2023-02-15T10:09:10;30.38;;;16.25;;
76021;SDS011;64718;52.124;6.226;2023-02-15T10:11:52;36.83;;;16.58;;
76021;SDS011;64718;52.124;6.226;2023-02-15T10:14:39;30.88;;;14.90;;
76021;SDS011;64718;52.124;6.226;2023-02-15T10:17:26;31.92;;;15.98;;
76021;SDS011;64718;52.124;6.226;2023-02-15T10:20:07;29.58;;;14.25;;
76021;SDS011;64718;52.124;6.226;2023-02-15T10:22:48;32.42;;;17.83;;
76021;SDS011;64718;52.124;6.226;2023-02-15T10:25:31;29.75;;;15.63;;
76021;SDS011;64718;52.124;6.226;2023-02-15T10:28:09;33.97;;;16.42;;
76021;SDS011;64718;52.124;6.226;2023-02-15T10:30:43;31.63;;;15.77;;
76021;SDS011;64718;52.124;6.226;2023-02-15T10:33:18;30.45;;;15.45;;
76021;SDS011;64718;52.124;6.226;2023-02-15T10:35:59;31.55;;;16.80;;
76021;SDS011;64718;52.124;6.226;2023-02-15T10:38:35;31.25;;;15.55;;
76021;SDS011;64718;52.124;6.226;2023-02-15T10:41:11;31.75;;;16.08;;
76021;SDS011;64718;52.124;6.226;2023-02-15T10:43:47;31.25;;;16.15;;
76021;SDS011;64718;52.124;6.226;2023-02-15T10:46:31;32.20;;;15.00;;
76021;SDS011;64718;52.124;6.226;2023-02-15T10:49:20;26.85;;;15.32;;
76021;SDS011;64718;52.124;6.226;2023-02-15T10:52:02;30.45;;;15.18;;
76021;SDS011;64718;52.124;6.226;2023-02-15T10:54:41;27.15;;;14.20;;
76021;SDS011;64718;52.124;6.226;2023-02-15T10:57:16;32.00;;;16.15;;
76021;SDS011;64718;52.124;6.226;2023-02-15T10:59:57;29.15;;;15.13;;
76021;SDS011;64718;52.124;6.226;2023-02-15T11:02:35;29.77;;;15.27;;
76021;SDS011;64718;52.124;6.226;2023-02-15T11:05:22;28.23;;;14.48;;
76021;SDS011;64718;52.124;6.226;2023-02-15T11:07:57;32.40;;;14.95;;
76021;SDS011;64718;52.124;6.226;2023-02-15T11:10:30;31.48;;;16.08;;
76021;SDS011;64718;52.124;6.226;2023-02-15T11:13:02;31.63;;;14.98;;
76021;SDS011;64718;52.124;6.226;2023-02-15T11:15:34;31.38;;;15.70;;
76021;SDS011;64718;52.124;6.226;2023-02-15T11:18:05;29.27;;;13.93;;
76021;SDS011;64718;52.124;6.226;2023-02-15T11:20:41;33.92;;;16.52;;
76021;SDS011;64718;52.124;6.226;2023-02-15T11:23:20;27.23;;;14.52;;
76021;SDS011;64718;52.124;6.226;2023-02-15T11:25:52;31.77;;;15.65;;
76021;SDS011;64718;52.124;6.226;2023-02-15T11:28:24;28.70;;;16.13;;
76021;SDS011;64718;52.124;6.226;2023-02-15T11:30:56;29.80;;;17.95;;
76021;SDS011;64718;52.124;6.226;2023-02-15T11:33:27;28.08;;;14.93;;
76021;SDS011;64718;52.124;6.226;2023-02-15T11:35:59;26.60;;;14.93;;
76021;SDS011;64718;52.124;6.226;2023-02-15T11:38:31;27.50;;;16.20;;
76021;SDS011;64718;52.124;6.226;2023-02-15T11:40:59;28.50;;;13.98;;
76021;SDS011;64718;52.124;6.226;2023-02-15T11:43:32;26.25;;;13.70;;
76021;SDS011;64718;52.124;6.226;2023-02-15T11:46:02;26.88;;;14.05;;
76021;SDS011;64718;52.124;6.226;2023-02-15T11:48:29;31.98;;;15.20;;
76021;SDS011;64718;52.124;6.226;2023-02-15T11:50:58;28.50;;;12.77;;
76021;SDS011;64718;52.124;6.226;2023-02-15T11:53:26;23.48;;;13.25;;
76021;SDS011;64718;52.124;6.226;2023-02-15T11:55:57;30.45;;;15.30;;
76021;SDS011;64718;52.124;6.226;2023-02-15T11:58:26;29.08;;;14.10;;
76021;SDS011;64718;52.124;6.226;2023-02-15T12:00:58;23.48;;;13.18;;
76021;SDS011;64718;52.124;6.226;2023-02-15T12:03:29;26.65;;;13.30;;
76021;SDS011;64718;52.124;6.226;2023-02-15T12:06:14;26.02;;;13.00;;
76021;SDS011;64718;52.124;6.226;2023-02-15T12:08:48;25.02;;;13.25;;
76021;SDS011;64718;52.124;6.226;2023-02-15T12:11:20;23.90;;;13.30;;
76021;SDS011;64718;52.124;6.226;2023-02-15T12:13:55;26.25;;;14.40;;
76021;SDS011;64718;52.124;6.226;2023-02-15T12:16:24;26.02;;;15.02;;
76021;SDS011;64718;52.124;6.226;2023-02-15T12:18:52;27.85;;;15.07;;
76021;SDS011;64718;52.124;6.226;2023-02-15T12:21:26;28.00;;;12.70;;
76021;SDS011;64718;52.124;6.226;2023-02-15T12:26:25;24.48;;;13.82;;
76021;SDS011;64718;52.124;6.226;2023-02-15T12:28:53;29.73;;;13.60;;
76021;SDS011;64718;52.124;6.226;2023-02-15T12:31:23;24.08;;;11.85;;
76021;SDS011;64718;52.124;6.226;2023-02-15T12:33:53;27.33;;;12.70;;
76021;SDS011;64718;52.124;6.226;2023-02-15T12:36:23;24.75;;;12.95;;
76021;SDS011;64718;52.124;6.226;2023-02-15T12:39:03;25.33;;;13.18;;
76021;SDS011;64718;52.124;6.226;2023-02-15T12:41:43;26.65;;;14.90;;
76021;SDS011;64718;52.124;6.226;2023-02-15T12:44:15;28.05;;;14.05;;
76021;SDS011;64718;52.124;6.226;2023-02-15T12:46:47;28.58;;;13.77;;
76021;SDS011;64718;52.124;6.226;2023-02-15T12:49:22;25.45;;;12.85;;
76021;SDS011;64718;52.124;6.226;2023-02-15T12:51:51;25.48;;;12.70;;
76021;SDS011;64718;52.124;6.226;2023-02-15T12:54:26;23.45;;;13.57;;
76021;SDS011;64718;52.124;6.226;2023-02-15T12:56:55;29.98;;;14.07;;
76021;SDS011;64718;52.124;6.226;2023-02-15T12:59:23;30.45;;;13.98;;
76021;SDS011;64718;52.124;6.226;2023-02-15T13:01:50;27.67;;;13.40;;
76021;SDS011;64718;52.124;6.226;2023-02-15T13:04:21;29.30;;;14.13;;
76021;SDS011;64718;52.124;6.226;2023-02-15T13:06:52;29.42;;;14.55;;
76021;SDS011;64718;52.124;6.226;2023-02-15T13:09:24;26.05;;;13.82;;
76021;SDS011;64718;52.124;6.226;2023-02-15T13:12:08;25.63;;;12.68;;
76021;SDS011;64718;52.124;6.226;2023-02-15T13:14:44;25.58;;;12.80;;
76021;SDS011;64718;52.124;6.226;2023-02-15T13:17:12;24.73;;;13.35;;
76021;SDS011;64718;52.124;6.226;2023-02-15T13:19:43;26.13;;;14.10;;
76021;SDS011;64718;52.124;6.226;2023-02-15T13:22:16;27.08;;;15.05;;
76021;SDS011;64718;52.124;6.226;2023-02-15T13:24:46;23.88;;;13.02;;
76021;SDS011;64718;52.124;6.226;2023-02-15T13:27:15;29.65;;;13.65;;
76021;SDS011;64718;52.124;6.226;2023-02-15T13:29:45;27.95;;;14.23;;
76021;SDS011;64718;52.124;6.226;2023-02-15T13:32:21;25.20;;;13.15;;
76021;SDS011;64718;52.124;6.226;2023-02-15T13:34:52;24.95;;;12.95;;
76021;SDS011;64718;52.124;6.226;2023-02-15T13:37:25;26.60;;;13.23;;
76021;SDS011;64718;52.124;6.226;2023-02-15T13:40:03;29.15;;;13.85;;
76021;SDS011;64718;52.124;6.226;2023-02-15T13:42:35;25.88;;;13.30;;
76021;SDS011;64718;52.124;6.226;2023-02-15T13:45:08;30.17;;;13.82;;
76021;SDS011;64718;52.124;6.226;2023-02-15T13:48:00;26.35;;;13.38;;
76021;SDS011;64718;52.124;6.226;2023-02-15T13:50:38;28.10;;;14.23;;
76021;SDS011;64718;52.124;6.226;2023-02-15T13:53:24;28.83;;;13.85;;
76021;SDS011;64718;52.124;6.226;2023-02-15T13:56:04;24.25;;;13.68;;
76021;SDS011;64718;52.124;6.226;2023-02-15T13:58:47;26.00;;;14.85;;
76021;SDS011;64718;52.124;6.226;2023-02-15T14:01:28;25.27;;;14.07;;
76021;SDS011;64718;52.124;6.226;2023-02-15T14:07:18;27.98;;;14.20;;
76021;SDS011;64718;52.124;6.226;2023-02-15T14:09:59;26.42;;;15.05;;
76021;SDS011;64718;52.124;6.226;2023-02-15T14:12:42;27.25;;;13.13;;
76021;SDS011;64718;52.124;6.226;2023-02-15T14:15:25;29.80;;;14.65;;
76021;SDS011;64718;52.124;6.226;2023-02-15T14:18:00;27.85;;;13.93;;
76021;SDS011;64718;52.124;6.226;2023-02-15T14:20:41;30.13;;;14.27;;
76021;SDS011;64718;52.124;6.226;2023-02-15T14:23:17;26.60;;;14.00;;
76021;SDS011;64718;52.124;6.226;2023-02-15T14:25:57;26.92;;;14.23;;
76021;SDS011;64718;52.124;6.226;2023-02-15T14:28:28;28.10;;;13.40;;
76021;SDS011;64718;52.124;6.226;2023-02-15T14:31:01;27.73;;;13.63;;
76021;SDS011;64718;52.124;6.226;2023-02-15T14:33:32;28.75;;;14.63;;
76021;SDS011;64718;52.124;6.226;2023-02-15T14:36:01;23.33;;;13.52;;
76021;SDS011;64718;52.124;6.226;2023-02-15T14:38:36;25.90;;;14.27;;
76021;SDS011;64718;52.124;6.226;2023-02-15T14:41:15;27.98;;;14.65;;
76021;SDS011;64718;52.124;6.226;2023-02-15T14:43:48;26.42;;;14.05;;
76021;SDS011;64718;52.124;6.226;2023-02-15T14:46:23;26.80;;;13.75;;
76021;SDS011;64718;52.124;6.226;2023-02-15T14:48:54;27.58;;;15.60;;
76021;SDS011;64718;52.124;6.226;2023-02-15T14:51:53;25.70;;;13.80;;
76021;SDS011;64718;52.124;6.226;2023-02-15T14:57:33;28.15;;;15.27;;
76021;SDS011;64718;52.124;6.226;2023-02-15T15:00:01;28.48;;;15.45;;
76021;SDS011;64718;52.124;6.226;2023-02-15T15:02:49;31.85;;;16.13;;
76021;SDS011;64718;52.124;6.226;2023-02-15T15:05:21;27.90;;;15.70;;
76021;SDS011;64718;52.124;6.226;2023-02-15T15:07:51;29.27;;;15.32;;